• Join FlightAware (Why Join?)
  • Login
  • US Flag 
04:03AM EDT


 

Airport Tracker/Info


-or-


 

Live Flight TrackerFlight Track Log ✈ UCA596 ✈ 20-Feb-2014 ✈ KIAD - KBGM

Flight Track Log - Related Links

Times and Time Zones

All times are in EST time to prevent confusion due to time zone crossing. See the UCA596 flight status page for this flight to view local times or setup timezone preferences in your user account.

Time Position Orientation Groundspeed Altitude Reporting Facility
EST Latitude Longitude Course Direction KTS MPH feet Rate Location/Type
01:31PM 38.9667 -77.5167 322° Northwest 154 177 1,900  Level Potomac TRACON
01:32PM 39.0000 -77.5500 322° Northwest 177 204 3,500 1,860 Climbing Potomac TRACON
01:33PM 39.0500 -77.5833 333° Northwest 187 215 5,800 1,860 Climbing Potomac TRACON
01:34PM 39.0833 -77.6167 322° Northwest 188 216 7,300 1,440 Climbing Potomac TRACON
01:36PM 39.1864 -77.6081 North 229 264 9,700 1,440 Climbing Washington Center
01:37PM 39.2489 -77.6069 North 229 264 11,200 1,500 Climbing Washington Center
01:38PM 39.3117 -77.5872 14° North 229 264 12,800 1,320 Climbing Washington Center
01:39PM 39.3725 -77.5622 18° North 229 264 14,000 1,080 Climbing Washington Center
01:40PM 39.4397 -77.5369 16° North 229 264 15,000 960 Climbing Washington Center
01:41PM 39.5067 -77.5094 18° North 239 275 16,000 900 Climbing Washington Center
01:43PM 39.6469 -77.4525 17° North 268 308 17,800 900 Climbing New York Center
01:44PM 39.7056 -77.4500 North 244 281 18,700 600 Climbing New York Center
01:45PM 39.7803 -77.4517 359° North 239 275 19,000 120 Climbing New York Center
01:46PM 39.8514 -77.4503 North 260 299 19,000  Level New York Center
01:47PM 39.9389 -77.4128 18° North 284 327 19,000  Level New York Center
01:49PM 40.0983 -77.3247 23° Northeast 308 354 19,000  Level New York Center
01:50PM 40.1692 -77.2853 23° Northeast 303 349 19,000  Level New York Center
01:51PM 40.2575 -77.2364 23° Northeast 303 349 19,000  Level New York Center
01:52PM 40.3261 -77.1992 22° Northeast 303 349 19,000  Level New York Center
01:53PM 40.4119 -77.1525 22° Northeast 303 349 19,000  Level New York Center
01:54PM 40.4808 -77.1125 24° Northeast 303 349 19,000  Level New York Center
01:55PM 40.5647 -77.0656 23° Northeast 303 349 19,000  Level New York Center
01:56PM 40.6422 -77.0208 24° Northeast 303 349 19,000 -300 Level New York Center
01:57PM 40.7217 -76.9758 23° Northeast 308 354 18,400 -600 Descending New York Center
01:58PM 40.8033 -76.9286 24° Northeast 308 354 17,900 -780 Descending New York Center
01:59PM 40.8869 -76.8811 23° Northeast 315 362 16,900 -900 Descending New York Center
02:00PM 40.9728 -76.8339 23° Northeast 322 371 16,200 -780 Descending New York Center
02:01PM 41.0522 -76.7886 23° Northeast 317 365 15,400 -600 Descending New York Center
02:02PM 41.1336 -76.7436 23° Northeast 317 365 15,000 -240 Descending New York Center
02:03PM 41.2111 -76.6953 25° Northeast 312 359 15,000  Level New York Center
02:04PM 41.2842 -76.6492 25° Northeast 298 343 15,000  Level New York Center
02:05PM 41.3547 -76.6111 22° Northeast 293 337 15,000  Level New York Center
02:06PM 41.4322 -76.5653 24° Northeast 298 343 15,000  Level New York Center
02:07PM 41.5136 -76.5169 24° Northeast 303 349 15,000 -300 Level New York Center
02:08PM 41.5928 -76.4708 24° Northeast 303 349 14,400 -780 Descending New York Center
02:09PM 41.6786 -76.4228 23° Northeast 309 356 13,500 -1,080 Descending New York Center
02:10PM 41.7556 -76.3764 24° Northeast 325 374 12,300 -1,320 Descending New York Center
02:11PM 41.8350 -76.3275 25° Northeast 320 368 10,900 -1,500 Descending New York Center
02:12PM 41.9247 -76.2764 23° Northeast 314 361 9,300 -1,560 Descending New York Center
02:13PM 41.9997 -76.2322 24° Northeast 304 350 7,800 -1,320 Descending New York Center
02:14PM 42.0725 -76.1908 23° Northeast 292 336 6,700 -1,200 Descending New York Center
02:15PM 42.1447 -76.1550 20° North 281 323 5,500 -1,080 Descending New York Center
02:16PM 42.2128 -76.1242 19° North 268 308 4,600 -900 Descending New York Center
02:17PM 42.2422 -76.0703 54° Northeast 199 229 3,700 -900 Descending New York Center
02:18PM 42.2486 -76.0233 80° East 144 166 2,800 -660 Descending New York Center
02:19PM 42.2628 -75.9853 63° Northeast 130 150 2,400 6,060 Descending New York Center
02:20PM 42.2811 -75.9447 59° Northeast 130 150 15,000 6,300 Climbing New York Center
02:21PM 42.2975 -75.9039 62° Northeast 130 150 15,000  Level New York Center
02:22PM 42.3158 -75.8633 North 130 150 15,000  Level New York Center
02:23PM 42.2000 -75.9667 North  Level FlightAware Approximate
02:25PM 42.2000 -75.9667 North  Level FlightAware Approximate
02:32PM 42.2084 -75.9796 North  Level Estimated
02:33PM 42.2084 -75.9796 North  Level Estimated
02:34PM 42.2084 -75.9796 North  Level Estimated
02:35PM 42.2084 -75.9796 North  Level Estimated
02:36PM 42.2084 -75.9796 North  Level Estimated
02:37PM 42.2084 -75.9796 North  Level Estimated
02:38PM 42.2084 -75.9796 North  Level Estimated
02:39PM 42.2084 -75.9796 North  Level Estimated